Airport ICAO


20:14 UTC

27°C

Few clouds


An affordable passengers' Moving Map for your aircraft. Made for the iPad and the iPhone
More information here

LFLB Aix Les Bains


Chambery FRANCE   VFR


METAR LFLB 162000Z AUTO 35008KT 300V040 9999 FEW088 27/10 Q1012 0h14min

TAF AMD LFLB 161403Z 1614/1712 35008KT CAVOK PROB40 TEMPO 1614/1618 VRB20G30KT 3500 TSRA BKN040CB PROB40 TEMPO 1618/1622 FEW040CB BKN090 TEMPO 1701/1707 VRB02KT BKN070 PROB40 TEMPO 1710/1712 FEW050CB BKN090 6h11min





NOTAMS

OPEN